createdAt,value
2019-05-26T00:00:51.133Z,87.29
2019-05-26T00:01:51.087Z,87.29
2019-05-26T00:02:51.093Z,87.18
2019-05-26T00:03:51.086Z,87.08
2019-05-26T00:04:51.070Z,87.18
2019-05-26T00:05:51.059Z,87.18
2019-05-26T00:06:51.062Z,87.18
2019-05-26T00:07:51.024Z,86.88
2019-05-26T00:08:51.012Z,86.63
2019-05-26T00:09:51.004Z,86.53
2019-05-26T00:10:51.034Z,86.53
2019-05-26T00:11:50.992Z,86.32
2019-05-26T00:12:50.991Z,86.22
2019-05-26T00:13:50.963Z,86.12
2019-05-26T00:14:50.960Z,86.02
2019-05-26T00:15:50.986Z,86.12
2019-05-26T00:16:50.924Z,86.22
2019-05-26T00:17:50.909Z,86.22
2019-05-26T00:18:50.926Z,86.22
2019-05-26T00:19:50.897Z,86.12
2019-05-26T00:20:50.916Z,86.32
2019-05-26T00:21:50.854Z,86.43
2019-05-26T00:22:50.857Z,86.22
2019-05-26T00:23:50.858Z,86.36
2019-05-26T00:24:50.843Z,86.67
2019-05-26T00:25:50.849Z,86.57
2019-05-26T00:26:50.846Z,86.57
2019-05-26T00:27:50.808Z,86.57
2019-05-26T00:28:50.791Z,86.46
2019-05-26T00:29:50.767Z,86.67
2019-05-26T00:30:50.774Z,86.67
2019-05-26T00:31:50.782Z,86.77
2019-05-26T00:32:50.744Z,86.81
2019-05-26T00:33:50.747Z,86.91
2019-05-26T00:34:50.727Z,86.81
2019-05-26T00:35:50.705Z,87.02
2019-05-26T00:36:50.737Z,86.91
2019-05-26T00:37:50.967Z,86.91
2019-05-26T00:38:50.700Z,86.91
2019-05-26T00:39:50.666Z,86.81
2019-05-26T00:40:50.664Z,87.02
2019-05-26T00:41:50.683Z,87.02
2019-05-26T00:42:50.635Z,86.91
2019-05-26T00:43:50.631Z,86.81
2019-05-26T00:44:50.630Z,86.91
2019-05-26T00:45:50.613Z,86.71
2019-05-26T00:46:50.582Z,86.81
2019-05-26T00:47:50.587Z,86.91
2019-05-26T00:48:50.615Z,86.91
2019-05-26T00:49:50.588Z,86.81
2019-05-26T00:50:50.558Z,86.61
2019-05-26T00:51:50.541Z,86.61
2019-05-26T00:52:50.523Z,86.61
2019-05-26T00:53:50.503Z,86.61
2019-05-26T00:54:50.506Z,86.30
2019-05-26T00:55:50.500Z,86.30
2019-05-26T00:56:50.503Z,85.85
2019-05-26T00:57:50.463Z,85.64
2019-05-26T00:58:50.471Z,85.55
2019-05-26T00:59:50.448Z,85.44
2019-05-26T01:00:50.449Z,85.55
2019-05-26T01:01:50.451Z,85.69
2019-05-26T01:02:50.412Z,85.79
2019-05-26T01:03:50.407Z,85.99
2019-05-26T01:04:50.399Z,85.99
2019-05-26T01:05:50.385Z,85.99
2019-05-26T01:06:50.427Z,85.89
2019-05-26T01:08:05.212Z,86.10
2019-05-26T01:08:51.351Z,86.10
2019-05-26T01:09:50.349Z,86.10
2019-05-26T01:10:50.338Z,86.51
2019-05-26T01:11:50.352Z,86.71
2019-05-26T01:12:50.328Z,86.71
2019-05-26T01:13:50.305Z,86.81
2019-05-26T01:14:50.280Z,87.02
2019-05-26T01:15:50.277Z,86.81
2019-05-26T01:16:50.291Z,86.71
2019-05-26T01:17:50.279Z,86.77
2019-05-26T01:18:50.245Z,86.57
2019-05-26T01:19:50.231Z,86.22
2019-05-26T01:20:50.219Z,85.61
2019-05-26T01:21:50.247Z,85.47
2019-05-26T01:22:53.614Z,85.12
2019-05-26T01:23:50.190Z,84.81
2019-05-26T01:24:50.175Z,83.85
2019-05-26T01:25:50.155Z,83.85
2019-05-26T01:26:50.157Z,83.40
2019-05-26T01:27:50.175Z,83.20
2019-05-26T01:28:50.150Z,83.26
2019-05-26T01:29:50.126Z,82.75
2019-05-26T01:30:50.133Z,83.06
2019-05-26T01:31:50.093Z,82.96
2019-05-26T01:32:50.109Z,82.55
2019-05-26T01:33:50.059Z,82.45
2019-05-26T01:34:50.122Z,82.35
2019-05-26T01:35:50.039Z,82.45
2019-05-26T01:36:50.059Z,82.55
2019-05-26T01:37:50.061Z,82.65
2019-05-26T01:38:50.029Z,82.51
2019-05-26T01:39:50.008Z,82.21
2019-05-26T01:40:49.994Z,82.21
2019-05-26T01:41:49.965Z,82.10
2019-05-26T01:42:50.005Z,82.10
2019-05-26T01:43:49.960Z,82.10
2019-05-26T01:44:49.944Z,82.21
2019-05-26T01:45:49.944Z,82.31
2019-05-26T01:46:49.946Z,82.35
2019-05-26T01:47:49.934Z,82.45
2019-05-26T01:48:49.920Z,82.55
2019-05-26T01:49:49.902Z,82.35
2019-05-26T01:50:49.893Z,82.45
2019-05-26T01:51:49.882Z,82.35
2019-05-26T01:52:49.877Z,82.35
2019-05-26T01:53:49.851Z,82.24
2019-05-26T01:54:49.838Z,82.24
2019-05-26T01:55:49.827Z,82.24
2019-05-26T01:56:49.833Z,82.04
2019-05-26T01:57:49.833Z,82.45
2019-05-26T01:58:49.802Z,82.96
2019-05-26T01:59:49.783Z,82.65
2019-05-26T02:00:49.779Z,82.65
2019-05-26T02:01:49.751Z,82.75
2019-05-26T02:02:49.780Z,83.06
2019-05-26T02:03:49.732Z,83.20
2019-05-26T02:04:49.735Z,83.51
2019-05-26T02:05:49.726Z,83.40
2019-05-26T02:06:49.715Z,84.01
2019-05-26T02:07:49.700Z,83.81
2019-05-26T02:08:49.709Z,84.12
2019-05-26T02:09:49.673Z,84.22
2019-05-26T02:10:49.657Z,84.42
2019-05-26T02:11:49.659Z,84.53
2019-05-26T02:12:49.634Z,84.53
2019-05-26T02:13:49.650Z,84.63
2019-05-26T02:14:49.624Z,84.83
2019-05-26T02:15:49.612Z,85.04
2019-05-26T02:16:49.605Z,84.94
2019-05-26T02:17:49.642Z,84.94
2019-05-26T02:18:49.597Z,84.80
2019-05-26T02:19:49.578Z,84.69
2019-05-26T02:20:49.565Z,84.69
2019-05-26T02:21:49.542Z,84.69
2019-05-26T02:22:49.537Z,84.49
2019-05-26T02:23:49.534Z,84.49
2019-05-26T02:24:49.511Z,84.83
2019-05-26T02:25:49.507Z,84.94
2019-05-26T02:26:49.486Z,85.04
2019-05-26T02:27:49.494Z,85.14
2019-05-26T02:28:49.497Z,85.10
2019-05-26T02:29:49.448Z,85.04
2019-05-26T02:30:49.437Z,85.24
2019-05-26T02:31:49.450Z,85.35
2019-05-26T02:32:49.429Z,85.45
2019-05-26T02:33:49.446Z,85.75
2019-05-26T02:34:49.408Z,85.86
2019-05-26T02:35:49.395Z,85.86
2019-05-26T02:36:49.395Z,85.86
2019-05-26T02:37:49.375Z,85.71
2019-05-26T02:39:00.984Z,85.65
2019-05-26T02:39:50.376Z,85.86
2019-05-26T02:40:49.343Z,85.96
2019-05-26T02:41:49.327Z,85.82
2019-05-26T02:42:49.423Z,85.75
2019-05-26T02:43:49.299Z,85.92
2019-05-26T02:44:49.309Z,85.92
2019-05-26T02:45:49.285Z,85.71
2019-05-26T02:46:49.382Z,85.82
2019-05-26T02:47:49.273Z,85.71
2019-05-26T02:48:49.274Z,86.02
2019-05-26T02:49:49.237Z,85.92
2019-05-26T02:50:49.214Z,85.71
2019-05-26T02:51:49.198Z,85.71
2019-05-26T02:52:49.228Z,85.55
2019-05-26T02:53:49.227Z,85.65
2019-05-26T02:54:49.200Z,85.86
2019-05-26T02:55:49.175Z,85.86
2019-05-26T02:56:49.164Z,86.06
2019-05-26T02:57:49.152Z,86.36
2019-05-26T02:58:49.135Z,86.36
2019-05-26T02:59:49.175Z,86.36
2019-05-26T03:00:49.091Z,86.26
2019-05-26T03:02:02.010Z,86.36
2019-05-26T03:02:50.080Z,86.06
2019-05-26T03:03:49.096Z,86.16
2019-05-26T03:04:49.098Z,86.06
2019-05-26T03:05:49.037Z,86.26
2019-05-26T03:06:49.052Z,86.16
2019-05-26T03:07:49.028Z,86.06
2019-05-26T03:08:49.023Z,86.16
2019-05-26T03:09:49.026Z,86.16
2019-05-26T03:10:48.997Z,86.06
2019-05-26T03:11:49.000Z,86.16
2019-05-26T03:12:48.980Z,86.36
2019-05-26T03:13:48.963Z,86.61
2019-05-26T03:14:48.984Z,86.82
2019-05-26T03:15:48.944Z,86.91
2019-05-26T03:16:48.927Z,87.23
2019-05-26T03:17:48.920Z,87.02
2019-05-26T03:18:48.896Z,86.91
2019-05-26T03:19:48.932Z,87.32
2019-05-26T03:20:48.890Z,87.23
2019-05-26T03:21:48.890Z,87.23
2019-05-26T03:22:48.885Z,87.84
2019-05-26T03:23:48.854Z,87.73
2019-05-26T03:24:48.865Z,87.73
2019-05-26T03:25:48.834Z,87.53
2019-05-26T03:26:48.829Z,87.37
2019-05-26T03:27:48.830Z,87.67
2019-05-26T03:28:48.796Z,87.88
2019-05-26T03:29:48.811Z,88.08
2019-05-26T03:30:48.792Z,88.18
2019-05-26T03:31:48.781Z,88.59
2019-05-26T03:32:48.781Z,88.70
2019-05-26T03:33:48.749Z,88.74
2019-05-26T03:34:48.779Z,88.70
2019-05-26T03:35:48.742Z,88.59
2019-05-26T03:36:48.702Z,88.59
2019-05-26T03:37:48.722Z,88.59
2019-05-26T03:38:48.683Z,88.59
2019-05-26T03:39:48.693Z,88.49
2019-05-26T03:40:48.665Z,88.49
2019-05-26T03:41:48.669Z,88.59
2019-05-26T03:42:48.643Z,88.49
2019-05-26T03:43:48.634Z,88.59
2019-05-26T03:44:48.623Z,88.70
2019-05-26T03:45:48.613Z,88.59
2019-05-26T03:46:48.605Z,88.74
2019-05-26T03:47:48.587Z,88.84
2019-05-26T03:48:48.582Z,89.04
2019-05-26T03:49:48.563Z,89.15
2019-05-26T03:50:48.562Z,89.45
2019-05-26T03:51:48.561Z,89.70
2019-05-26T03:52:48.534Z,89.90
2019-05-26T03:53:48.594Z,89.70
2019-05-26T03:54:48.501Z,89.59
2019-05-26T03:55:48.545Z,89.59
2019-05-26T03:56:48.485Z,89.59
2019-05-26T03:57:48.469Z,89.59
2019-05-26T03:58:48.481Z,89.70
2019-05-26T03:59:48.467Z,89.80
2019-05-26T04:00:48.461Z,89.50
2019-05-26T04:01:48.448Z,89.50
2019-05-26T04:02:48.428Z,89.39
2019-05-26T04:03:48.420Z,89.50
2019-05-26T04:04:48.429Z,89.39
2019-05-26T04:05:48.423Z,89.39
2019-05-26T04:06:48.361Z,89.18
2019-05-26T04:07:48.367Z,88.68
2019-05-26T04:08:48.340Z,88.37
2019-05-26T04:10:03.871Z,88.17
2019-05-26T04:10:49.371Z,87.55
2019-05-26T04:11:48.311Z,87.30
2019-05-26T04:12:48.322Z,86.90
2019-05-26T04:13:48.303Z,86.08
2019-05-26T04:14:48.401Z,85.73
2019-05-26T04:15:48.297Z,85.32
2019-05-26T04:16:48.303Z,84.67
2019-05-26T04:17:48.241Z,84.36
2019-05-26T04:18:48.248Z,83.75
2019-05-26T04:19:48.261Z,82.83
2019-05-26T04:20:48.268Z,82.39
2019-05-26T04:21:48.209Z,82.59
2019-05-26T04:22:48.211Z,82.18
2019-05-26T04:23:48.195Z,80.65
2019-05-26T04:24:48.176Z,80.82
2019-05-26T04:25:48.185Z,80.71
2019-05-26T04:26:48.170Z,80.71
2019-05-26T04:27:48.139Z,80.20
2019-05-26T04:28:48.142Z,80.51
2019-05-26T04:29:48.141Z,80.00
2019-05-26T04:30:48.135Z,80.00
2019-05-26T04:31:48.096Z,79.18
2019-05-26T04:32:48.086Z,78.74
2019-05-26T04:33:48.085Z,78.64
2019-05-26T04:34:48.067Z,78.84
2019-05-26T04:35:48.086Z,78.74
2019-05-26T04:36:48.063Z,78.33
2019-05-26T04:37:48.033Z,78.39
2019-05-26T04:38:48.037Z,78.70
2019-05-26T04:39:48.015Z,77.17
2019-05-26T04:40:48.058Z,76.97
2019-05-26T04:41:47.996Z,76.46
2019-05-26T04:42:47.979Z,76.53
2019-05-26T04:43:47.966Z,76.32
2019-05-26T04:44:47.970Z,76.22
2019-05-26T04:45:47.970Z,76.18
2019-05-26T04:46:47.932Z,76.28
2019-05-26T04:47:47.942Z,76.08
2019-05-26T04:48:47.934Z,76.59
2019-05-26T04:49:47.907Z,76.28
2019-05-26T04:50:47.906Z,76.49
2019-05-26T04:51:47.929Z,76.69
2019-05-26T04:53:04.691Z,76.28
2019-05-26T04:53:48.851Z,76.90
2019-05-26T04:54:47.868Z,76.69
2019-05-26T04:55:47.845Z,76.59
2019-05-26T04:56:47.862Z,76.90
2019-05-26T04:57:47.816Z,76.59
2019-05-26T04:58:47.836Z,76.69
2019-05-26T04:59:47.802Z,76.59
2019-05-26T05:00:47.801Z,76.45
2019-05-26T05:01:47.797Z,76.04
2019-05-26T05:02:47.791Z,75.81
2019-05-26T05:03:47.752Z,74.99
2019-05-26T05:04:47.749Z,74.24
2019-05-26T05:05:47.727Z,74.55
2019-05-26T05:06:47.754Z,74.04
2019-05-26T05:07:47.721Z,74.76
2019-05-26T05:08:47.698Z,74.04
2019-05-26T05:09:47.696Z,74.35
2019-05-26T05:10:47.678Z,74.24
2019-05-26T05:11:47.701Z,74.31
2019-05-26T05:12:47.647Z,73.60
2019-05-26T05:13:47.639Z,73.80
2019-05-26T05:14:47.640Z,73.50
2019-05-26T05:15:47.627Z,73.06
2019-05-26T05:16:47.646Z,73.06
2019-05-26T05:17:47.598Z,73.22
2019-05-26T05:18:47.591Z,71.53
2019-05-26T05:19:47.586Z,71.91
2019-05-26T05:20:47.591Z,70.99
2019-05-26T05:21:47.588Z,70.99
2019-05-26T05:22:47.538Z,70.55
2019-05-26T05:23:47.558Z,70.45
2019-05-26T05:24:47.526Z,69.64
2019-05-26T05:25:47.505Z,68.73
2019-05-26T05:26:47.531Z,68.93
2019-05-26T05:27:47.488Z,69.06
2019-05-26T05:28:47.481Z,69.78
2019-05-26T05:29:47.458Z,69.84
2019-05-26T05:30:47.457Z,69.43
2019-05-26T05:31:47.478Z,69.43
2019-05-26T05:32:47.425Z,69.60
2019-05-26T05:33:47.414Z,70.11
2019-05-26T05:34:47.421Z,70.48
2019-05-26T05:35:47.411Z,70.25
2019-05-26T05:36:47.406Z,69.34
2019-05-26T05:37:47.388Z,69.51
2019-05-26T05:38:47.374Z,69.81
2019-05-26T05:39:47.352Z,69.74
2019-05-26T05:40:59.123Z,69.61
2019-05-26T05:41:48.353Z,68.60
2019-05-26T05:42:47.314Z,68.40
2019-05-26T05:43:47.320Z,68.70
2019-05-26T05:44:47.302Z,69.00
2019-05-26T05:45:47.294Z,68.29
2019-05-26T05:46:47.308Z,67.55
2019-05-26T05:47:47.260Z,68.06
2019-05-26T05:48:47.252Z,67.55
2019-05-26T05:49:47.244Z,66.67
2019-05-26T05:50:47.233Z,67.89
2019-05-26T05:51:47.255Z,68.40
2019-05-26T05:52:47.209Z,67.58
2019-05-26T05:53:47.220Z,67.35
2019-05-26T05:54:47.200Z,67.32
2019-05-26T05:55:47.186Z,66.78
2019-05-26T05:56:47.279Z,65.84
2019-05-26T05:57:47.150Z,64.90
2019-05-26T05:58:47.161Z,65.00
2019-05-26T05:59:47.140Z,64.53
2019-05-26T06:00:47.140Z,62.85
2019-05-26T06:01:47.131Z,61.76
2019-05-26T06:02:47.119Z,59.23
2019-05-26T06:03:47.083Z,55.76
2019-05-26T06:04:47.081Z,54.30
2019-05-26T06:05:47.082Z,54.97
2019-05-26T06:06:47.084Z,53.22
2019-05-26T06:07:47.070Z,53.39
2019-05-26T06:08:47.045Z,51.87
2019-05-26T06:09:47.024Z,53.22
2019-05-26T06:10:47.032Z,52.94
2019-05-26T06:11:47.026Z,52.29
2019-05-26T06:12:47.056Z,52.04
2019-05-26T06:13:46.986Z,51.87
2019-05-26T06:14:46.990Z,51.77
2019-05-26T06:15:46.959Z,50.47
2019-05-26T06:16:46.981Z,48.13
2019-05-26T06:17:46.943Z,48.63
2019-05-26T06:18:46.931Z,49.00
2019-05-26T06:19:46.915Z,48.25
2019-05-26T06:20:46.933Z,45.84
2019-05-26T06:21:46.953Z,45.70
2019-05-26T06:22:46.899Z,46.14
2019-05-26T06:23:46.882Z,47.14
2019-05-26T06:24:46.866Z,46.49
2019-05-26T06:25:46.852Z,46.67
2019-05-26T06:26:46.873Z,44.64
2019-05-26T06:27:46.844Z,45.61
2019-05-26T06:28:46.845Z,44.92
2019-05-26T06:29:58.515Z,47.18
2019-05-26T06:30:47.835Z,47.50
2019-05-26T06:31:46.804Z,50.30
2019-05-26T06:32:46.807Z,47.58
2019-05-26T06:33:46.775Z,49.20
2019-05-26T06:34:46.801Z,46.96
2019-05-26T06:35:46.810Z,45.84
2019-05-26T06:36:46.758Z,46.73
2019-05-26T06:37:46.757Z,45.82
2019-05-26T06:38:46.725Z,46.05
2019-05-26T06:39:46.717Z,44.54
2019-05-26T06:40:46.717Z,42.69
2019-05-26T06:41:46.742Z,45.67
2019-05-26T06:42:46.694Z,45.23
2019-05-26T06:43:46.683Z,45.78
2019-05-26T06:44:53.717Z,45.37
2019-05-26T06:45:47.669Z,44.92
2019-05-26T06:46:46.675Z,45.32
2019-05-26T06:47:46.635Z,46.35
2019-05-26T06:48:46.643Z,47.60
2019-05-26T06:49:46.625Z,50.27
2019-05-26T06:50:46.617Z,47.86
2019-05-26T06:51:46.621Z,46.79
2019-05-26T06:52:46.594Z,44.53
2019-05-26T06:53:46.583Z,44.68
2019-05-26T06:54:46.579Z,44.02
2019-05-26T06:55:46.571Z,44.76
2019-05-26T06:56:46.582Z,45.54
2019-05-26T06:57:46.547Z,43.60
2019-05-26T06:58:46.544Z,43.46
2019-05-26T06:59:46.527Z,42.57
2019-05-26T07:00:46.513Z,40.54
2019-05-26T07:01:46.534Z,43.28
2019-05-26T07:02:46.505Z,40.30
2019-05-26T07:03:46.511Z,41.97
2019-05-26T07:04:46.466Z,43.57
2019-05-26T07:05:46.453Z,43.07
2019-05-26T07:06:46.484Z,42.91
2019-05-26T07:07:46.445Z,45.36
2019-05-26T07:08:46.435Z,41.95
2019-05-26T07:09:46.438Z,44.34
2019-05-26T07:10:46.416Z,43.42
2019-05-26T07:11:54.208Z,42.11
2019-05-26T07:12:47.398Z,40.30
2019-05-26T07:13:46.388Z,41.17
2019-05-26T07:14:46.377Z,40.78
2019-05-26T07:15:46.367Z,42.05
2019-05-26T07:16:46.408Z,40.92
2019-05-26T07:17:46.379Z,41.39
2019-05-26T07:18:46.338Z,37.85
2019-05-26T07:19:46.329Z,42.07
2019-05-26T07:20:46.328Z,39.00
2019-05-26T07:21:46.356Z,41.47
2019-05-26T07:22:46.312Z,38.09
2019-05-26T07:23:46.300Z,39.37
2019-05-26T07:24:46.287Z,40.34
2019-05-26T07:25:46.315Z,39.25
2019-05-26T07:26:46.289Z,39.13
2019-05-26T07:27:46.253Z,39.45
2019-05-26T07:28:46.253Z,41.66
2019-05-26T07:29:46.228Z,41.89
2019-05-26T07:30:46.240Z,37.53
2019-05-26T07:31:46.212Z,39.95
2019-05-26T07:32:46.227Z,41.31
2019-05-26T07:33:46.200Z,37.35
2019-05-26T07:34:46.176Z,37.55
2019-05-26T07:35:49.676Z,38.82
2019-05-26T07:36:46.186Z,35.93
2019-05-26T07:37:46.190Z,37.28
2019-05-26T07:38:46.146Z,36.69
2019-05-26T07:39:46.159Z,37.63
2019-05-26T07:40:46.121Z,37.83
2019-05-26T07:41:46.109Z,37.04
2019-05-26T07:42:46.155Z,39.22
2019-05-26T07:43:46.090Z,40.86
2019-05-26T07:44:46.105Z,37.41
2019-05-26T07:45:46.083Z,38.59
2019-05-26T07:46:46.066Z,35.07
2019-05-26T07:47:46.088Z,35.14
2019-05-26T07:48:46.048Z,34.25
2019-05-26T07:49:46.057Z,35.35
2019-05-26T07:50:46.038Z,33.89
2019-05-26T07:51:46.020Z,36.36
2019-05-26T07:52:46.022Z,38.43
2019-05-26T07:53:45.996Z,36.16
2019-05-26T07:54:45.992Z,37.16
2019-05-26T07:55:45.978Z,36.16
2019-05-26T07:56:46.000Z,36.71
2019-05-26T07:57:46.008Z,35.65
2019-05-26T07:58:45.968Z,36.33
2019-05-26T07:59:45.967Z,36.41
2019-05-26T08:00:45.958Z,36.74
2019-05-26T08:01:45.928Z,37.77
2019-05-26T08:02:45.949Z,35.85
2019-05-26T08:03:45.912Z,34.76
2019-05-26T08:04:45.899Z,35.00
2019-05-26T08:05:45.898Z,34.69
2019-05-26T08:06:45.950Z,34.66
2019-05-26T08:07:45.935Z,34.12
2019-05-26T08:08:45.867Z,34.05
2019-05-26T08:09:45.854Z,32.05
2019-05-26T08:10:45.837Z,32.20
2019-05-26T08:11:45.836Z,31.16
2019-05-26T08:12:45.871Z,30.40
2019-05-26T08:13:45.848Z,31.69
2019-05-26T08:14:45.808Z,31.11
2019-05-26T08:15:45.807Z,32.72
2019-05-26T08:16:45.821Z,32.20
2019-05-26T08:17:45.793Z,31.38
2019-05-26T08:18:45.782Z,31.16
2019-05-26T08:19:45.764Z,33.03
2019-05-26T08:20:45.769Z,31.96
2019-05-26T08:21:45.752Z,35.96
2019-05-26T08:22:45.765Z,33.47
2019-05-26T08:23:45.728Z,34.59
2019-05-26T08:24:45.700Z,34.48
2019-05-26T08:25:45.708Z,33.51
2019-05-26T08:26:45.709Z,35.32
2019-05-26T08:27:45.724Z,35.80
2019-05-26T08:28:45.695Z,37.16
2019-05-26T08:29:45.673Z,34.25
2019-05-26T08:30:45.693Z,32.84
2019-05-26T08:31:45.658Z,33.42
2019-05-26T08:32:45.670Z,32.42
2019-05-26T08:33:45.640Z,31.52
2019-05-26T08:34:45.645Z,31.75
2019-05-26T08:35:45.670Z,32.87
2019-05-26T08:36:45.603Z,32.98
2019-05-26T08:37:45.642Z,33.18
2019-05-26T08:38:45.598Z,34.84
2019-05-26T08:39:48.281Z,36.07
2019-05-26T08:40:45.583Z,32.41
2019-05-26T08:41:45.559Z,31.92
2019-05-26T08:42:45.583Z,31.39
2019-05-26T08:43:45.547Z,31.69
2019-05-26T08:44:45.560Z,30.31
2019-05-26T08:45:45.538Z,31.31
2019-05-26T08:46:45.509Z,31.85
2019-05-26T08:47:45.529Z,30.38
2019-05-26T08:48:45.532Z,31.67
2019-05-26T08:49:45.498Z,31.85
2019-05-26T08:50:45.485Z,30.30
2019-05-26T08:51:45.475Z,32.38
2019-05-26T08:52:45.477Z,31.00
2019-05-26T08:53:45.483Z,31.09
2019-05-26T08:54:45.446Z,31.27
2019-05-26T08:55:45.426Z,30.63
2019-05-26T08:56:45.418Z,32.40
2019-05-26T08:57:45.419Z,34.79
2019-05-26T08:58:45.442Z,31.62
2019-05-26T08:59:45.405Z,33.77
2019-05-26T09:00:45.391Z,31.96
2019-05-26T09:01:45.381Z,29.88
2019-05-26T09:02:45.379Z,29.37
2019-05-26T09:03:45.381Z,29.48
2019-05-26T09:04:45.361Z,31.32
2019-05-26T09:05:45.355Z,31.33
2019-05-26T09:06:45.365Z,29.69
2019-05-26T09:07:45.341Z,31.03
2019-05-26T09:08:45.344Z,30.18
2019-05-26T09:09:45.324Z,28.13
2019-05-26T09:10:45.290Z,28.79
2019-05-26T09:11:45.287Z,27.15
2019-05-26T09:12:59.585Z,26.64
2019-05-26T09:13:46.292Z,26.43
2019-05-26T09:14:45.285Z,29.51
2019-05-26T09:15:45.251Z,25.76
2019-05-26T09:16:45.271Z,28.61
2019-05-26T09:17:45.219Z,27.99
2019-05-26T09:18:45.252Z,27.18
2019-05-26T09:19:45.228Z,26.90
2019-05-26T09:20:45.219Z,29.85
2019-05-26T09:21:45.217Z,27.92
2019-05-26T09:22:45.218Z,30.97
2019-05-26T09:23:45.211Z,29.33
2019-05-26T09:24:45.171Z,27.57
2019-05-26T09:25:46.680Z,30.25
2019-05-26T09:26:45.177Z,28.29
2019-05-26T09:27:45.156Z,29.76
2019-05-26T09:28:45.172Z,29.64
2019-05-26T09:29:45.127Z,31.19
2019-05-26T09:30:45.119Z,32.53
2019-05-26T09:31:45.101Z,30.80
2019-05-26T09:32:45.098Z,28.13
2019-05-26T09:33:45.136Z,29.50
2019-05-26T09:34:45.108Z,29.22
2019-05-26T09:35:45.090Z,31.48
2019-05-26T09:36:45.059Z,27.83
2019-05-26T09:37:45.085Z,28.29
2019-05-26T09:38:45.079Z,27.84
2019-05-26T09:39:45.055Z,27.83
2019-05-26T09:40:45.019Z,28.40
2019-05-26T09:41:45.044Z,28.15
2019-05-26T09:42:45.004Z,29.10
2019-05-26T09:43:45.054Z,29.68
2019-05-26T09:44:44.998Z,29.72
2019-05-26T09:45:45.000Z,30.97
2019-05-26T09:46:44.964Z,30.71
2019-05-26T09:47:44.990Z,28.53
2019-05-26T09:48:44.992Z,28.64
2019-05-26T09:49:44.932Z,30.74
2019-05-26T09:50:44.955Z,28.19
2019-05-26T09:51:44.933Z,29.07
2019-05-26T09:52:44.924Z,27.00
2019-05-26T09:53:44.937Z,29.79
2019-05-26T09:54:44.901Z,28.68
2019-05-26T09:55:44.891Z,27.61
2019-05-26T09:56:44.882Z,29.52
2019-05-26T09:57:44.871Z,30.44
2019-05-26T09:58:44.909Z,31.11
2019-05-26T09:59:44.859Z,29.39
2019-05-26T10:00:44.849Z,28.52
2019-05-26T10:01:44.828Z,30.07
2019-05-26T10:02:44.826Z,29.38
2019-05-26T10:03:44.839Z,29.78
2019-05-26T10:04:44.815Z,31.54
2019-05-26T10:05:44.796Z,31.39
2019-05-26T10:06:44.791Z,29.80
2019-05-26T10:07:44.843Z,32.61
2019-05-26T10:08:44.790Z,27.18
2019-05-26T10:09:44.753Z,28.25
2019-05-26T10:10:44.731Z,28.75
2019-05-26T10:11:44.760Z,28.93
2019-05-26T10:12:44.748Z,28.44
2019-05-26T10:13:44.749Z,28.23
2019-05-26T10:14:47.679Z,26.87
2019-05-26T10:15:44.697Z,28.49
2019-05-26T10:16:44.686Z,28.14
2019-05-26T10:17:44.670Z,28.24
2019-05-26T10:18:44.692Z,30.02
2019-05-26T10:19:44.665Z,29.39
2019-05-26T10:20:44.652Z,28.17
2019-05-26T10:21:44.661Z,27.88
2019-05-26T10:22:44.659Z,29.45
2019-05-26T10:23:44.625Z,28.25
2019-05-26T10:24:44.649Z,25.96
2019-05-26T10:25:44.614Z,26.67
2019-05-26T10:26:44.591Z,26.98
2019-05-26T10:27:44.581Z,27.31
2019-05-26T10:28:44.584Z,29.77
2019-05-26T10:29:44.583Z,29.06
2019-05-26T10:30:44.560Z,28.40
2019-05-26T10:31:44.543Z,29.35
2019-05-26T10:32:44.533Z,28.29
2019-05-26T10:33:44.501Z,29.85
2019-05-26T10:34:44.559Z,27.56
2019-05-26T10:35:44.504Z,26.93
2019-05-26T10:36:44.498Z,27.24
2019-05-26T10:37:44.484Z,26.23
2019-05-26T10:38:44.473Z,29.96
2019-05-26T10:39:45.283Z,27.50
2019-05-26T10:40:44.453Z,29.34
2019-05-26T10:41:44.457Z,27.34
2019-05-26T10:42:44.435Z,27.44
2019-05-26T10:43:47.470Z,29.14
2019-05-26T10:44:44.446Z,27.80
2019-05-26T10:45:44.441Z,29.19
2019-05-26T10:46:44.405Z,28.02
2019-05-26T10:47:44.392Z,29.33
2019-05-26T10:48:44.446Z,30.02
2019-05-26T10:49:44.404Z,32.03
2019-05-26T10:50:44.355Z,32.64
2019-05-26T10:51:44.375Z,34.00
2019-05-26T10:52:44.335Z,32.50
2019-05-26T10:53:44.333Z,32.34
2019-05-26T10:54:44.336Z,34.01
2019-05-26T10:55:44.306Z,34.64
2019-05-26T10:56:44.302Z,35.04
2019-05-26T10:57:44.313Z,34.34
2019-05-26T10:58:44.282Z,35.14
2019-05-26T10:59:44.324Z,34.99
2019-05-26T11:00:44.265Z,35.92
2019-05-26T11:01:44.281Z,36.35
2019-05-26T11:02:44.238Z,37.88
2019-05-26T11:03:44.235Z,37.90
2019-05-26T11:04:44.245Z,38.31
2019-05-26T11:05:44.229Z,38.43
2019-05-26T11:06:44.249Z,38.75
2019-05-26T11:07:44.184Z,40.54
2019-05-26T11:08:44.168Z,40.54
2019-05-26T11:09:44.203Z,39.25
2019-05-26T11:10:44.164Z,42.01
2019-05-26T11:11:44.155Z,39.84
2019-05-26T11:12:44.175Z,40.34
2019-05-26T11:13:44.128Z,40.34
2019-05-26T11:14:44.153Z,40.72
2019-05-26T11:15:44.115Z,39.21
2019-05-26T11:16:44.140Z,38.41
2019-05-26T11:17:44.113Z,38.73
2019-05-26T11:18:44.121Z,40.56
2019-05-26T11:19:44.120Z,41.53
2019-05-26T11:20:44.050Z,41.03
2019-05-26T11:21:44.076Z,41.22
2019-05-26T11:22:44.039Z,41.12
2019-05-26T11:23:44.062Z,41.20
2019-05-26T11:24:44.035Z,39.31
2019-05-26T11:25:44.040Z,40.18
2019-05-26T11:26:43.991Z,40.42
2019-05-26T11:27:43.999Z,40.94
2019-05-26T11:28:43.979Z,43.25
2019-05-26T11:29:43.987Z,41.58
2019-05-26T11:30:43.984Z,43.37
2019-05-26T11:31:43.940Z,43.77
2019-05-26T11:32:43.970Z,42.57
2019-05-26T11:33:43.918Z,43.31
2019-05-26T11:34:43.940Z,44.41
2019-05-26T11:35:43.928Z,44.81
2019-05-26T11:36:43.879Z,44.61
2019-05-26T11:37:43.860Z,44.11
2019-05-26T11:38:43.896Z,45.01
2019-05-26T11:39:43.864Z,44.23
2019-05-26T11:40:43.870Z,45.45
2019-05-26T11:41:43.819Z,45.65
2019-05-26T11:42:45.043Z,45.67
2019-05-26T11:43:43.815Z,45.97
2019-05-26T11:44:43.799Z,46.27
2019-05-26T11:45:43.815Z,46.50
2019-05-26T11:46:43.819Z,46.50
2019-05-26T11:47:43.777Z,47.09
2019-05-26T11:48:43.738Z,46.47
2019-05-26T11:49:43.758Z,46.09
2019-05-26T11:50:43.751Z,46.81
2019-05-26T11:51:43.730Z,47.89
2019-05-26T11:52:43.720Z,47.39
2019-05-26T11:53:43.707Z,46.99
2019-05-26T11:54:43.697Z,47.17
2019-05-26T11:55:43.711Z,46.75
2019-05-26T11:56:43.674Z,46.15
2019-05-26T11:57:43.648Z,46.65
2019-05-26T11:58:43.658Z,45.85
2019-05-26T11:59:47.135Z,45.13
2019-05-26T12:00:43.651Z,44.81
2019-05-26T12:01:43.610Z,44.91
2019-05-26T12:02:43.621Z,45.29
2019-05-26T12:03:43.634Z,44.89
2019-05-26T12:04:43.596Z,47.48
2019-05-26T12:05:43.611Z,44.29
2019-05-26T12:06:43.588Z,44.99
2019-05-26T12:07:43.545Z,45.39
2019-05-26T12:08:43.539Z,45.61
2019-05-26T12:09:43.539Z,46.08
2019-05-26T12:10:43.538Z,47.75
2019-05-26T12:11:43.517Z,44.35
2019-05-26T12:12:43.497Z,44.24
2019-05-26T12:13:43.482Z,45.24
2019-05-26T12:14:43.514Z,45.84
2019-05-26T12:15:43.469Z,44.92
2019-05-26T12:16:43.519Z,42.89
2019-05-26T12:17:43.459Z,42.47
2019-05-26T12:18:43.448Z,43.05
2019-05-26T12:19:43.423Z,43.54
2019-05-26T12:20:43.431Z,42.53
2019-05-26T12:21:43.432Z,41.71
2019-05-26T12:22:43.384Z,41.20
2019-05-26T12:23:43.366Z,42.01
2019-05-26T12:24:43.410Z,42.09
2019-05-26T12:25:43.360Z,40.11
2019-05-26T12:26:43.378Z,39.39
2019-05-26T12:27:43.336Z,40.19
2019-05-26T12:28:43.331Z,40.20
2019-05-26T12:29:43.317Z,41.12
2019-05-26T12:30:43.323Z,41.14
2019-05-26T12:31:43.327Z,40.92
2019-05-26T12:32:43.329Z,41.00
2019-05-26T12:33:43.280Z,40.50
2019-05-26T12:34:43.258Z,40.20
2019-05-26T12:35:43.249Z,41.99
2019-05-26T12:36:43.254Z,39.59
2019-05-26T12:37:43.241Z,40.74
2019-05-26T12:38:43.224Z,40.94
2019-05-26T12:39:43.203Z,40.34
2019-05-26T12:40:43.198Z,40.66
2019-05-26T12:41:43.219Z,41.06
2019-05-26T12:42:43.188Z,42.45
2019-05-26T12:43:43.169Z,41.55
2019-05-26T12:44:49.651Z,43.07
2019-05-26T12:45:44.144Z,41.71
2019-05-26T12:46:43.199Z,42.41
2019-05-26T12:47:43.115Z,42.43
2019-05-26T12:48:43.114Z,43.23
2019-05-26T12:49:43.109Z,42.75
2019-05-26T12:50:43.090Z,43.95
2019-05-26T12:51:43.117Z,42.55
2019-05-26T12:52:43.077Z,43.95